Time;durP1;ratioP1;P1;durP2;ratioP2;P2;SDS_P1;SDS_P2;PMS_P1;PMS_P2;Temp;Humidity;BMP_temperature;BMP_pressure;BME280_temperature;BME280_humidity;BME280_pressure;Samples;Min_cycle;Max_cycle;Signal;HPM_P1;HPM_P2
2021/03/18 00:02:04;;;;;;;;;;;-0.70;98.00;;;;;;5102750;28;19962;-68
2021/03/18 00:04:29;;;;;;;;;;;-0.80;98.00;;;;;;5083629;28;19961;-67
2021/03/18 00:06:55;;;;;;;;;;;-0.80;98.00;;;;;;5102361;28;19912;-68
2021/03/18 00:09:20;;;;;;;;;;;-0.80;98.00;;;;;;5101790;28;19916;-69
2021/03/18 00:11:49;;;;;;;;;;;-0.90;98.00;;;;;;5084484;28;19908;-68
2021/03/18 00:14:16;;;;;;;;;;;-0.90;98.00;;;;;;5100728;28;19912;-69
2021/03/18 00:16:42;;;;;;;;;;;-0.80;98.00;;;;;;5101519;28;19916;-69
2021/03/18 00:19:08;;;;;;;;;;;-0.80;98.00;;;;;;5101900;28;19919;-68
2021/03/18 00:21:33;;;;;;;;;;;-0.80;98.00;;;;;;5084336;28;19912;-68
2021/03/18 00:23:59;;;;;;;;;;;-0.70;98.00;;;;;;5101778;28;20244;-69
2021/03/18 00:26:25;;;;;;;;;;;-0.80;98.00;;;;;;5102278;28;19961;-67
2021/03/18 00:28:51;;;;;;;;;;;-0.80;98.00;;;;;;5100183;28;20002;-68
2021/03/18 00:31:21;;;;;;;;;;;-0.80;98.00;;;;;;5101963;28;20435;-69
2021/03/18 00:33:46;;;;;;;;;;;-0.80;98.00;;;;;;5099637;28;19919;-68
2021/03/18 00:36:12;;;;;;;;;;;-0.90;98.00;;;;;;5101698;28;19916;-69
2021/03/18 00:38:37;;;;;;;;;;;-0.90;98.00;;;;;;5102089;28;20308;-69
2021/03/18 00:41:08;;;;;;;;;;;-0.90;98.00;;;;;;5100642;28;19920;-69
2021/03/18 00:43:34;;;;;;;;;;;-0.90;98.00;;;;;;5078940;28;19927;-68
2021/03/18 00:45:59;;;;;;;;;;;-0.80;98.00;;;;;;5098691;28;20312;-68
2021/03/18 00:48:25;;;;;;;;;;;-0.70;98.00;;;;;;5098425;28;19975;-69
2021/03/18 00:50:54;;;;;;;;;;;-0.80;98.00;;;;;;5098171;28;19969;-68
2021/03/18 00:53:21;;;;;;;;;;;-0.80;98.00;;;;;;5097942;28;19912;-69
2021/03/18 00:55:46;;;;;;;;;;;-0.80;98.00;;;;;;5098322;28;19920;-67
2021/03/18 00:58:12;;;;;;;;;;;-0.80;98.00;;;;;;5098017;28;19999;-67
2021/03/18 01:00:37;;;;;;;;;;;-0.70;98.00;;;;;;5097054;28;19919;-68
2021/03/18 01:03:06;;;;;;;;;;;-0.80;98.00;;;;;;5097891;28;19960;-68
2021/03/18 01:05:50;;;;;;;;;;;-0.80;98.00;;;;;;5096961;28;19999;-69
2021/03/18 01:08:17;;;;;;;;;;;-0.70;98.00;;;;;;5097916;28;19998;-70
2021/03/18 01:10:45;;;;;;;;;;;-0.80;98.00;;;;;;5097246;28;19926;-68
2021/03/18 01:13:11;;;;;;;;;;;-0.80;98.00;;;;;;5098358;28;19908;-68
2021/03/18 01:15:39;;;;;;;;;;;-0.70;98.00;;;;;;5096543;28;19958;-68
2021/03/18 01:18:09;;;;;;;;;;;-0.70;98.00;;;;;;5097395;28;19938;-68
2021/03/18 01:20:34;;;;;;;;;;;-0.70;98.00;;;;;;5095268;28;19916;-68
2021/03/18 01:23:00;;;;;;;;;;;-0.70;98.00;;;;;;5097248;28;19969;-68
2021/03/18 01:25:26;;;;;;;;;;;-0.70;98.00;;;;;;5079891;28;19913;-67
2021/03/18 01:27:51;;;;;;;;;;;-0.70;98.00;;;;;;5097793;28;19912;-67
2021/03/18 01:30:19;;;;;;;;;;;-0.70;98.00;;;;;;5096655;28;19912;-68
2021/03/18 01:32:45;;;;;;;;;;;-0.70;98.00;;;;;;5097325;28;19920;-69
2021/03/18 01:35:18;;;;;;;;;;;-0.70;98.00;;;;;;5097838;28;19912;-69
2021/03/18 01:37:44;;;;;;;;;;;-0.60;98.00;;;;;;5097418;28;20003;-69
2021/03/18 01:40:11;;;;;;;;;;;-0.70;98.00;;;;;;5097723;28;19909;-69
2021/03/18 01:42:37;;;;;;;;;;;-0.70;98.00;;;;;;5097531;28;19999;-68
2021/03/18 01:45:07;;;;;;;;;;;-0.70;98.00;;;;;;5095739;28;19915;-69
2021/03/18 01:47:36;;;;;;;;;;;-0.70;98.00;;;;;;5087522;28;19916;-69
2021/03/18 01:50:06;;;;;;;;;;;-0.70;98.00;;;;;;5097615;28;19916;-71
2021/03/18 01:52:31;;;;;;;;;;;-0.70;98.00;;;;;;5096700;28;19958;-69
2021/03/18 01:54:57;;;;;;;;;;;-0.70;98.00;;;;;;5096756;28;19912;-69
2021/03/18 01:57:22;;;;;;;;;;;-0.70;98.00;;;;;;5096580;28;19924;-69
2021/03/18 01:59:48;;;;;;;;;;;-0.70;98.00;;;;;;5096289;28;19923;-69
2021/03/18 02:02:14;;;;;;;;;;;-0.70;98.00;;;;;;5096881;28;19912;-69
2021/03/18 02:04:40;;;;;;;;;;;-0.70;98.00;;;;;;5096893;28;19912;-68
2021/03/18 02:07:05;;;;;;;;;;;-0.70;98.00;;;;;;5078796;28;19951;-67
2021/03/18 02:09:31;;;;;;;;;;;-0.70;98.00;;;;;;5097024;28;19912;-67
2021/03/18 02:11:56;;;;;;;;;;;-0.80;98.00;;;;;;5085743;28;19916;-69
2021/03/18 02:14:22;;;;;;;;;;;-0.80;98.00;;;;;;5095387;28;19970;-69
2021/03/18 02:16:48;;;;;;;;;;;-0.80;98.00;;;;;;5096782;28;19922;-69
2021/03/18 02:19:13;;;;;;;;;;;-0.80;98.00;;;;;;5096176;28;19990;-69
2021/03/18 02:21:42;;;;;;;;;;;-0.80;98.00;;;;;;5096092;28;20316;-69
2021/03/18 02:24:07;;;;;;;;;;;-0.80;97.90;;;;;;5096551;28;19912;-70
2021/03/18 02:26:33;;;;;;;;;;;-0.90;97.70;;;;;;5096338;28;19919;-69
2021/03/18 02:29:17;;;;;;;;;;;-0.90;97.60;;;;;;5095170;28;20298;-69
2021/03/18 02:31:45;;;;;;;;;;;-0.90;97.30;;;;;;5096366;28;19912;-67
2021/03/18 02:34:10;;;;;;;;;;;-0.90;96.90;;;;;;5067662;28;19961;-68
2021/03/18 02:36:40;;;;;;;;;;;-0.90;97.00;;;;;;5096440;28;20013;-67
2021/03/18 02:39:09;;;;;;;;;;;-0.90;96.90;;;;;;5096283;28;19912;-69
2021/03/18 02:41:38;;;;;;;;;;;-0.90;96.70;;;;;;5096321;28;20007;-69
2021/03/18 02:44:18;;;;;;;;;;;-0.90;96.60;;;;;;5076833;28;19916;-68
2021/03/18 02:46:44;;;;;;;;;;;-1.00;96.50;;;;;;5086806;28;19935;-68
2021/03/18 02:49:12;;;;;;;;;;;-1.10;96.40;;;;;;5095814;28;19920;-69
2021/03/18 02:51:40;;;;;;;;;;;-1.10;96.30;;;;;;5086826;28;19974;-68
2021/03/18 02:54:10;;;;;;;;;;;-1.10;96.30;;;;;;5078565;28;19927;-68
2021/03/18 02:56:39;;;;;;;;;;;-1.20;96.10;;;;;;5094942;28;20308;-68
2021/03/18 02:59:05;;;;;;;;;;;-1.20;96.00;;;;;;5095112;28;19962;-68
2021/03/18 03:01:31;;;;;;;;;;;-1.20;95.80;;;;;;5095896;28;19919;-69
2021/03/18 03:03:58;;;;;;;;;;;-1.20;95.80;;;;;;5096689;28;20228;-69
2021/03/18 03:06:24;;;;;;;;;;;-1.10;95.70;;;;;;5095005;28;19912;-68
2021/03/18 03:08:50;;;;;;;;;;;-0.90;96.00;;;;;;5077254;28;19958;-69
2021/03/18 03:11:23;;;;;;;;;;;-1.00;95.90;;;;;;5095985;28;19908;-68
2021/03/18 03:13:49;;;;;;;;;;;-1.00;95.80;;;;;;5094019;28;20011;-68
2021/03/18 03:16:17;;;;;;;;;;;-1.00;95.80;;;;;;5095528;28;20290;-69
2021/03/18 03:18:47;;;;;;;;;;;-1.00;95.80;;;;;;5095893;28;20220;-69
2021/03/18 03:21:14;;;;;;;;;;;-1.00;95.90;;;;;;5096047;28;19923;-68
2021/03/18 03:23:40;;;;;;;;;;;-1.00;95.80;;;;;;5095421;28;20312;-68
2021/03/18 03:26:06;;;;;;;;;;;-1.00;95.80;;;;;;5095484;28;19913;-69
2021/03/18 03:28:32;;;;;;;;;;;-1.00;95.80;;;;;;5076433;28;20102;-69
2021/03/18 03:30:58;;;;;;;;;;;-0.90;95.50;;;;;;5077855;28;19912;-69
2021/03/18 03:33:24;;;;;;;;;;;-0.80;95.80;;;;;;5077757;28;20215;-69
2021/03/18 03:35:50;;;;;;;;;;;-0.90;95.90;;;;;;5095374;28;20003;-69
2021/03/18 03:38:18;;;;;;;;;;;-0.90;95.90;;;;;;5077777;28;20006;-69
2021/03/18 03:40:44;;;;;;;;;;;-0.90;95.80;;;;;;5095867;28;19969;-68
2021/03/18 03:43:09;;;;;;;;;;;-0.90;95.90;;;;;;5094662;28;20308;-68
2021/03/18 03:45:35;;;;;;;;;;;-0.90;95.90;;;;;;5094675;28;19995;-68
2021/03/18 03:48:01;;;;;;;;;;;-0.90;95.70;;;;;;5093587;28;20363;-68
2021/03/18 03:50:27;;;;;;;;;;;-0.90;95.80;;;;;;5095920;28;20216;-69
2021/03/18 03:52:59;;;;;;;;;;;-0.90;95.90;;;;;;5094754;28;19962;-69
2021/03/18 03:55:28;;;;;;;;;;;-0.90;95.80;;;;;;5077442;28;20575;-67
2021/03/18 03:57:57;;;;;;;;;;;-0.90;96.00;;;;;;5095223;28;19920;-68
2021/03/18 04:00:23;;;;;;;;;;;-0.90;95.90;;;;;;5093930;28;19912;-69
2021/03/18 04:02:50;;;;;;;;;;;-1.00;95.90;;;;;;5094702;28;19923;-69
2021/03/18 04:05:16;;;;;;;;;;;-1.10;95.80;;;;;;5094835;28;19982;-69
2021/03/18 04:07:42;;;;;;;;;;;-1.00;95.80;;;;;;5094565;28;19912;-70
2021/03/18 04:10:09;;;;;;;;;;;-1.00;95.70;;;;;;5094499;28;20212;-67
2021/03/18 04:12:36;;;;;;;;;;;-1.00;95.80;;;;;;5095210;28;19916;-69
2021/03/18 04:15:09;;;;;;;;;;;-1.00;95.80;;;;;;5093963;28;19919;-67
2021/03/18 04:17:37;;;;;;;;;;;-1.00;95.90;;;;;;5096349;28;20342;-68
2021/03/18 04:20:05;;;;;;;;;;;-1.00;95.80;;;;;;5098440;28;20287;-67
2021/03/18 04:22:34;;;;;;;;;;;-0.90;95.70;;;;;;5098351;28;19912;-68
2021/03/18 04:25:01;;;;;;;;;;;-0.90;95.90;;;;;;5098580;28;20011;-67
2021/03/18 04:27:27;;;;;;;;;;;-1.00;95.80;;;;;;5096866;28;19916;-69
2021/03/18 04:29:54;;;;;;;;;;;-1.00;96.00;;;;;;5097967;28;19908;-71
2021/03/18 04:32:20;;;;;;;;;;;-1.00;95.90;;;;;;5098010;28;19912;-69
2021/03/18 04:34:49;;;;;;;;;;;-1.10;95.90;;;;;;5097575;28;20262;-69
2021/03/18 04:37:15;;;;;;;;;;;-1.10;95.90;;;;;;5097563;28;19971;-69
2021/03/18 04:39:41;;;;;;;;;;;-1.10;95.90;;;;;;5098382;28;19975;-69
2021/03/18 04:42:10;;;;;;;;;;;-1.00;96.10;;;;;;5098180;28;19927;-68
2021/03/18 04:44:36;;;;;;;;;;;-1.00;96.20;;;;;;5079063;28;19912;-68
2021/03/18 04:47:02;;;;;;;;;;;-1.00;96.20;;;;;;5098343;28;19912;-69
2021/03/18 04:49:28;;;;;;;;;;;-1.00;96.10;;;;;;5098377;28;19920;-69
2021/03/18 04:51:54;;;;;;;;;;;-1.00;96.40;;;;;;5098124;28;20011;-69
2021/03/18 04:54:19;;;;;;;;;;;-1.00;96.10;;;;;;5098168;28;20079;-68
2021/03/18 04:56:45;;;;;;;;;;;-1.00;96.20;;;;;;5098559;28;19916;-69
2021/03/18 04:59:15;;;;;;;;;;;-1.00;96.20;;;;;;5096847;28;19913;-68
2021/03/18 05:01:59;;;;;;;;;;;-1.00;96.40;;;;;;5097491;28;20252;-69
2021/03/18 05:04:25;;;;;;;;;;;-1.00;96.40;;;;;;5096909;28;19912;-69
2021/03/18 05:06:53;;;;;;;;;;;-1.00;96.30;;;;;;5097796;28;19920;-68
2021/03/18 05:09:20;;;;;;;;;;;-1.00;96.20;;;;;;5097250;28;20338;-69
2021/03/18 05:11:46;;;;;;;;;;;-1.10;96.50;;;;;;5098716;28;19969;-69
2021/03/18 05:14:11;;;;;;;;;;;-1.00;96.30;;;;;;5095275;28;20006;-69
2021/03/18 05:16:37;;;;;;;;;;;-1.10;96.70;;;;;;5097569;28;20264;-68
2021/03/18 05:19:06;;;;;;;;;;;-1.10;96.50;;;;;;5097777;28;19920;-68
2021/03/18 05:21:32;;;;;;;;;;;-1.00;96.60;;;;;;5097294;28;19912;-67
2021/03/18 05:24:00;;;;;;;;;;;-1.00;96.60;;;;;;5097677;28;20228;-67
2021/03/18 05:26:25;;;;;;;;;;;-1.10;96.80;;;;;;5098052;28;19912;-67
2021/03/18 05:28:51;;;;;;;;;;;-1.10;96.70;;;;;;5095270;28;19912;-67
2021/03/18 05:31:17;;;;;;;;;;;-1.10;96.80;;;;;;5097058;28;19912;-67
2021/03/18 05:33:43;;;;;;;;;;;-1.10;96.80;;;;;;5096464;28;20288;-67
2021/03/18 05:36:08;;;;;;;;;;;-1.10;96.60;;;;;;5097899;28;20007;-67
2021/03/18 05:38:34;;;;;;;;;;;-1.10;97.00;;;;;;5096740;28;19912;-67
2021/03/18 05:41:00;;;;;;;;;;;-1.10;97.00;;;;;;5096964;28;20217;-67
2021/03/18 05:43:27;;;;;;;;;;;-1.10;96.90;;;;;;5077186;28;21290;-67
2021/03/18 05:45:53;;;;;;;;;;;-1.10;96.70;;;;;;5097272;28;19999;-67
2021/03/18 05:48:19;;;;;;;;;;;-1.00;96.80;;;;;;5097188;28;19955;-67
2021/03/18 05:50:46;;;;;;;;;;;-1.00;96.80;;;;;;5097357;28;19969;-67
2021/03/18 05:53:11;;;;;;;;;;;-0.90;97.00;;;;;;5096781;28;19919;-67
2021/03/18 05:55:38;;;;;;;;;;;-0.90;97.20;;;;;;5100102;28;19912;-67
2021/03/18 05:58:03;;;;;;;;;;;-0.90;97.20;;;;;;5096939;28;19915;-67
2021/03/18 06:00:31;;;;;;;;;;;-0.90;97.30;;;;;;5095667;28;19912;-67
2021/03/18 06:02:57;;;;;;;;;;;-0.90;97.20;;;;;;5095915;28;19921;-67
2021/03/18 06:05:23;;;;;;;;;;;-0.90;97.20;;;;;;5095953;28;20002;-66
2021/03/18 06:07:49;;;;;;;;;;;-0.80;97.10;;;;;;5086755;28;20092;-67
2021/03/18 06:10:17;;;;;;;;;;;-0.70;97.10;;;;;;5097016;28;20311;-67
2021/03/18 06:12:43;;;;;;;;;;;-0.60;97.50;;;;;;5096764;28;19912;-66
2021/03/18 06:15:10;;;;;;;;;;;-0.60;97.70;;;;;;5095123;28;19916;-67
2021/03/18 06:17:36;;;;;;;;;;;-0.60;97.80;;;;;;5095966;28;20232;-66
2021/03/18 06:20:03;;;;;;;;;;;-0.60;97.50;;;;;;5078804;28;19943;-67
2021/03/18 06:22:36;;;;;;;;;;;-0.60;97.50;;;;;;5096585;28;20014;-67
2021/03/18 06:25:04;;;;;;;;;;;-0.50;97.60;;;;;;5096472;28;19954;-67
2021/03/18 06:27:29;;;;;;;;;;;-0.40;97.90;;;;;;5096842;28;19908;-67
2021/03/18 06:29:55;;;;;;;;;;;-0.40;97.90;;;;;;5095140;28;19919;-67
2021/03/18 06:32:22;;;;;;;;;;;-0.40;97.70;;;;;;5078928;28;19908;-67
2021/03/18 06:34:49;;;;;;;;;;;-0.40;97.80;;;;;;5096705;28;20020;-67
2021/03/18 06:37:35;;;;;;;;;;;-0.40;98.00;;;;;;5095756;28;19917;-67
2021/03/18 06:40:20;;;;;;;;;;;-0.40;97.90;;;;;;5095518;28;19916;-67
2021/03/18 06:42:53;;;;;;;;;;;-0.30;98.00;;;;;;5095838;28;19912;-67
2021/03/18 06:45:19;;;;;;;;;;;-0.20;98.00;;;;;;5095406;28;19908;-67
2021/03/18 06:47:52;;;;;;;;;;;-0.20;98.00;;;;;;5096612;28;20194;-67
2021/03/18 06:50:26;;;;;;;;;;;-0.10;98.00;;;;;;5094265;28;19916;-67
2021/03/18 06:52:51;;;;;;;;;;;0.00;98.00;;;;;;5077282;28;19916;-67
2021/03/18 06:55:27;;;;;;;;;;;0.00;98.00;;;;;;5096375;28;19916;-67
2021/03/18 06:58:11;;;;;;;;;;;0.10;98.00;;;;;;5096038;28;20296;-68
2021/03/18 07:00:37;;;;;;;;;;;0.10;98.00;;;;;;5087545;28;20007;-67
2021/03/18 07:03:02;;;;;;;;;;;0.20;98.00;;;;;;5095782;28;19912;-66
2021/03/18 07:05:36;;;;;;;;;;;0.20;98.00;;;;;;5095800;28;19920;-66
2021/03/18 07:08:02;;;;;;;;;;;0.20;98.00;;;;;;5096270;28;19915;-66
2021/03/18 07:10:31;;;;;;;;;;;0.40;98.00;;;;;;5096043;28;20252;-66
2021/03/18 07:13:13;;;;;;;;;;;0.50;98.00;;;;;;5095617;28;20316;-66
2021/03/18 07:15:39;;;;;;;;;;;0.60;98.00;;;;;;5094410;28;19916;-67
2021/03/18 07:18:04;;;;;;;;;;;0.90;98.00;;;;;;5096395;28;19908;-67
2021/03/18 07:20:30;;;;;;;;;;;1.20;98.00;;;;;;5096013;28;19913;-67
2021/03/18 07:22:56;;;;;;;;;;;1.30;98.00;;;;;;5095933;28;19965;-67
2021/03/18 07:25:29;;;;;;;;;;;1.60;98.00;;;;;;5077964;28;19912;-67
2021/03/18 07:27:58;;;;;;;;;;;1.70;98.00;;;;;;5095203;28;20297;-68
2021/03/18 07:30:25;;;;;;;;;;;1.90;98.00;;;;;;5076430;28;20308;-68
2021/03/18 07:32:52;;;;;;;;;;;1.90;98.00;;;;;;5095967;28;19912;-67
2021/03/18 07:35:17;;;;;;;;;;;2.20;98.00;;;;;;5095671;28;19912;-68
2021/03/18 07:37:44;;;;;;;;;;;2.20;97.90;;;;;;5094996;28;19966;-68
2021/03/18 07:40:09;;;;;;;;;;;2.10;97.30;;;;;;5077855;28;19918;-68
2021/03/18 07:42:36;;;;;;;;;;;2.00;97.30;;;;;;5095582;28;19912;-68
2021/03/18 07:45:02;;;;;;;;;;;1.90;97.50;;;;;;5076437;28;19912;-68
2021/03/18 07:47:28;;;;;;;;;;;1.80;97.90;;;;;;5094880;28;19935;-68
2021/03/18 07:49:54;;;;;;;;;;;1.80;97.70;;;;;;5095727;28;20259;-68
2021/03/18 07:52:21;;;;;;;;;;;1.70;98.00;;;;;;5098431;28;19912;-68
2021/03/18 07:54:49;;;;;;;;;;;1.60;98.00;;;;;;5081657;28;19916;-68
2021/03/18 07:57:15;;;;;;;;;;;1.40;98.00;;;;;;5098463;28;19952;-67
2021/03/18 07:59:42;;;;;;;;;;;1.50;98.00;;;;;;5097409;28;19912;-67
2021/03/18 08:02:15;;;;;;;;;;;1.50;98.00;;;;;;5099540;28;19915;-67
2021/03/18 08:04:42;;;;;;;;;;;1.30;98.00;;;;;;5080071;28;19912;-67
2021/03/18 08:07:08;;;;;;;;;;;1.40;98.00;;;;;;5094472;28;19916;-67
2021/03/18 08:09:34;;;;;;;;;;;1.40;98.00;;;;;;5095646;28;19916;-68
2021/03/18 08:11:59;;;;;;;;;;;1.30;98.00;;;;;;5081533;28;19908;-67
2021/03/18 08:14:25;;;;;;;;;;;1.60;98.00;;;;;;5097544;28;20316;-67
2021/03/18 08:16:51;;;;;;;;;;;1.90;98.00;;;;;;5099134;28;19923;-67
2021/03/18 08:19:18;;;;;;;;;;;2.10;97.80;;;;;;5099059;28;20603;-67
2021/03/18 08:21:45;;;;;;;;;;;2.30;97.20;;;;;;5099355;28;19908;-67
2021/03/18 08:24:13;;;;;;;;;;;2.50;96.80;;;;;;5096345;28;19912;-68
2021/03/18 08:26:52;;;;;;;;;;;2.50;96.40;;;;;;5093768;28;19935;-67
2021/03/18 08:29:23;;;;;;;;;;;2.50;96.70;;;;;;5094802;28;19912;-68
2021/03/18 08:31:53;;;;;;;;;;;2.40;96.40;;;;;;5095268;28;19916;-68
2021/03/18 08:34:20;;;;;;;;;;;2.50;95.90;;;;;;5094228;28;19942;-68
2021/03/18 08:36:51;;;;;;;;;;;2.90;96.20;;;;;;5096003;28;19924;-68
2021/03/18 08:39:35;;;;;;;;;;;2.90;96.20;;;;;;5075965;28;19957;-67
2021/03/18 08:42:02;;;;;;;;;;;2.70;96.40;;;;;;5095999;28;19928;-67
2021/03/18 08:44:31;;;;;;;;;;;2.20;97.20;;;;;;5096068;28;19960;-67
2021/03/18 08:46:58;;;;;;;;;;;2.00;97.40;;;;;;5096468;28;20213;-67
2021/03/18 08:49:26;;;;;;;;;;;2.10;97.60;;;;;;5079033;28;19923;-67
2021/03/18 08:51:56;;;;;;;;;;;2.50;98.00;;;;;;5098455;28;20280;-67
2021/03/18 08:54:40;;;;;;;;;;;2.70;97.20;;;;;;5098277;28;19918;-67
2021/03/18 08:57:23;;;;;;;;;;;2.90;96.70;;;;;;5072963;28;19920;-67
2021/03/18 08:59:50;;;;;;;;;;;3.00;95.70;;;;;;5097471;28;20061;-66
2021/03/18 09:02:16;;;;;;;;;;;2.80;95.70;;;;;;5097102;28;19966;-67
2021/03/18 09:04:42;;;;;;;;;;;2.40;96.30;;;;;;5097960;28;20054;-67
2021/03/18 09:07:12;;;;;;;;;;;2.40;96.60;;;;;;5098495;28;19989;-66
2021/03/18 09:09:38;;;;;;;;;;;2.30;97.00;;;;;;5097795;28;19964;-67
2021/03/18 09:12:06;;;;;;;;;;;2.80;97.90;;;;;;5079334;28;20017;-67
2021/03/18 09:14:31;;;;;;;;;;;3.60;94.80;;;;;;5097314;28;19915;-66
2021/03/18 09:17:03;;;;;;;;;;;3.90;93.80;;;;;;5097397;28;19920;-67
2021/03/18 09:19:29;;;;;;;;;;;5.00;91.40;;;;;;5080466;28;19908;-67
2021/03/18 09:21:54;;;;;;;;;;;5.50;87.00;;;;;;5080056;28;19919;-66
2021/03/18 09:24:20;;;;;;;;;;;4.90;87.40;;;;;;5091216;28;19913;-67
2021/03/18 09:26:46;;;;;;;;;;;4.20;89.40;;;;;;5096473;28;20022;-67
2021/03/18 09:29:12;;;;;;;;;;;3.70;91.30;;;;;;5075615;28;19997;-67
2021/03/18 09:31:37;;;;;;;;;;;3.90;92.10;;;;;;5097369;28;19920;-67
2021/03/18 09:34:03;;;;;;;;;;;4.70;89.60;;;;;;5080013;28;19909;-67
2021/03/18 09:36:30;;;;;;;;;;;5.70;89.00;;;;;;5096807;28;19969;-66
2021/03/18 09:38:56;;;;;;;;;;;6.60;83.90;;;;;;5096848;28;19951;-66
2021/03/18 09:41:25;;;;;;;;;;;7.70;80.80;;;;;;5097492;28;19919;-66
2021/03/18 09:44:04;;;;;;;;;;;8.50;79.10;;;;;;5095815;28;19912;-67
2021/03/18 09:46:32;;;;;;;;;;;9.70;75.40;;;;;;5097842;28;19947;-67
2021/03/18 09:48:57;;;;;;;;;;;10.20;73.50;;;;;;5079523;28;20343;-67
2021/03/18 09:51:23;;;;;;;;;;;10.30;72.70;;;;;;5097696;28;19908;-67
2021/03/18 09:54:00;;;;;;;;;;;10.10;71.60;;;;;;5079329;28;20231;-66
2021/03/18 09:56:27;;;;;;;;;;;9.00;73.90;;;;;;5097113;28;19967;-66
2021/03/18 09:58:53;;;;;;;;;;;7.80;78.50;;;;;;5096021;28;19952;-66
2021/03/18 10:01:21;;;;;;;;;;;6.50;79.20;;;;;;5079317;28;20316;-67
2021/03/18 10:03:53;;;;;;;;;;;5.70;82.00;;;;;;5081625;28;19916;-66
2021/03/18 10:06:34;;;;;;;;;;;5.10;84.10;;;;;;5070452;28;19913;-66
2021/03/18 10:09:19;;;;;;;;;;;5.00;86.20;;;;;;5059314;28;19948;-66
2021/03/18 10:12:05;;;;;;;;;;;5.80;85.30;;;;;;5087766;28;19918;-67
2021/03/18 10:14:35;;;;;;;;;;;6.50;83.70;;;;;;5094973;28;19957;-66
2021/03/18 10:17:05;;;;;;;;;;;6.60;80.90;;;;;;5083930;28;19916;-66
2021/03/18 10:19:32;;;;;;;;;;;6.60;82.00;;;;;;5096744;28;20221;-66
2021/03/18 10:22:04;;;;;;;;;;;6.20;82.50;;;;;;5059131;28;19913;-71
2021/03/18 10:24:29;;;;;;;;;;;5.70;83.00;;;;;;5088584;28;19912;-70
2021/03/18 10:27:08;;;;;;;;;;;4.90;84.30;;;;;;5096714;28;19965;-70
2021/03/18 10:29:33;;;;;;;;;;;4.10;86.20;;;;;;5095692;28;19916;-70
2021/03/18 10:32:09;;;;;;;;;;;3.60;88.10;;;;;;5096890;28;19915;-69
2021/03/18 10:34:34;;;;;;;;;;;4.00;89.60;;;;;;5078727;28;19912;-69
2021/03/18 10:37:01;;;;;;;;;;;5.90;87.50;;;;;;5097026;28;20297;-69
2021/03/18 10:39:27;;;;;;;;;;;7.90;78.60;;;;;;5096606;28;19919;-70
2021/03/18 10:41:54;;;;;;;;;;;9.30;74.70;;;;;;5096331;28;19915;-69
2021/03/18 10:44:21;;;;;;;;;;;10.10;72.80;;;;;;5094723;28;19912;-70
2021/03/18 10:46:46;;;;;;;;;;;10.40;68.10;;;;;;5075128;28;19912;-69
2021/03/18 10:49:13;;;;;;;;;;;9.50;70.90;;;;;;5096405;28;19920;-70
2021/03/18 10:51:45;;;;;;;;;;;8.60;72.40;;;;;;5096633;28;19912;-69
2021/03/18 10:54:20;;;;;;;;;;;7.60;73.30;;;;;;5096237;28;20266;-69
2021/03/18 10:56:46;;;;;;;;;;;7.00;74.60;;;;;;5078069;28;20018;-69
2021/03/18 10:59:18;;;;;;;;;;;7.80;70.90;;;;;;5095063;28;20003;-69
2021/03/18 11:01:44;;;;;;;;;;;8.30;69.90;;;;;;5096460;28;20249;-70
2021/03/18 11:04:11;;;;;;;;;;;8.10;67.50;;;;;;5096279;28;19912;-70
2021/03/18 11:06:49;;;;;;;;;;;8.30;72.40;;;;;;5096363;28;19919;-70
2021/03/18 11:09:15;;;;;;;;;;;8.40;70.40;;;;;;5076173;28;19913;-69
2021/03/18 11:11:52;;;;;;;;;;;8.10;69.70;;;;;;5076084;28;19908;-69
2021/03/18 11:14:17;;;;;;;;;;;8.20;71.10;;;;;;5074912;28;19908;-69
2021/03/18 11:16:43;;;;;;;;;;;8.70;70.80;;;;;;5080093;28;19923;-69
2021/03/18 11:19:10;;;;;;;;;;;9.60;65.70;;;;;;5095864;28;20009;-70
2021/03/18 11:21:36;;;;;;;;;;;10.60;64.80;;;;;;5094027;28;20258;-69
2021/03/18 11:24:05;;;;;;;;;;;10.40;63.40;;;;;;5096040;28;19908;-69
2021/03/18 11:26:34;;;;;;;;;;;10.00;60.40;;;;;;5095665;28;20011;-69
2021/03/18 11:29:15;;;;;;;;;;;10.50;61.10;;;;;;5077040;28;20292;-69
2021/03/18 11:31:50;;;;;;;;;;;10.60;59.30;;;;;;5096131;28;19908;-69
2021/03/18 11:34:17;;;;;;;;;;;10.90;59.80;;;;;;5096109;28;20375;-69
2021/03/18 11:36:43;;;;;;;;;;;11.70;60.70;;;;;;5095772;28;19912;-70
2021/03/18 11:39:09;;;;;;;;;;;12.20;56.80;;;;;;5096073;28;19953;-68
2021/03/18 11:41:35;;;;;;;;;;;12.70;56.10;;;;;;5095907;28;19935;-69
2021/03/18 11:44:01;;;;;;;;;;;13.40;58.80;;;;;;5095154;28;20288;-69
2021/03/18 11:46:26;;;;;;;;;;;13.90;56.40;;;;;;5095673;28;19970;-69
2021/03/18 11:48:52;;;;;;;;;;;12.50;58.70;;;;;;5096034;28;19923;-68
2021/03/18 11:51:18;;;;;;;;;;;13.40;59.50;;;;;;5095782;28;19915;-68
2021/03/18 11:53:44;;;;;;;;;;;11.60;59.80;;;;;;5095648;28;20002;-69
2021/03/18 11:56:10;;;;;;;;;;;9.30;65.20;;;;;;5096030;28;19917;-69
2021/03/18 11:58:35;;;;;;;;;;;7.90;70.70;;;;;;5076559;28;20249;-68
2021/03/18 12:01:01;;;;;;;;;;;7.10;70.20;;;;;;5077752;28;19916;-68
2021/03/18 12:03:26;;;;;;;;;;;6.60;72.80;;;;;;5095826;28;19912;-69
2021/03/18 12:05:52;;;;;;;;;;;6.20;75.30;;;;;;5095576;28;19908;-70
2021/03/18 12:08:17;;;;;;;;;;;5.70;75.30;;;;;;5095886;28;19915;-69
2021/03/18 12:10:43;;;;;;;;;;;5.10;76.90;;;;;;5095556;28;19908;-69
2021/03/18 12:13:08;;;;;;;;;;;4.80;78.20;;;;;;5095757;28;19908;-69
2021/03/18 12:15:34;;;;;;;;;;;4.90;80.20;;;;;;5094485;28;19919;-69
2021/03/18 12:18:00;;;;;;;;;;;5.00;79.20;;;;;;5094906;28;19920;-68
2021/03/18 12:20:28;;;;;;;;;;;4.90;77.80;;;;;;5095489;28;20208;-68
2021/03/18 12:22:53;;;;;;;;;;;4.80;78.80;;;;;;5095490;28;19935;-68
2021/03/18 12:25:20;;;;;;;;;;;4.80;79.00;;;;;;5084910;28;19974;-69
2021/03/18 12:27:47;;;;;;;;;;;4.70;78.40;;;;;;5093409;28;19913;-68
2021/03/18 12:30:13;;;;;;;;;;;4.90;78.90;;;;;;5094188;28;19916;-68
2021/03/18 12:32:39;;;;;;;;;;;5.00;77.40;;;;;;5095465;28;19909;-68
2021/03/18 12:35:06;;;;;;;;;;;5.30;77.10;;;;;;5095120;28;20011;-69
2021/03/18 12:37:31;;;;;;;;;;;5.50;76.40;;;;;;5095327;28;19912;-68
2021/03/18 12:39:57;;;;;;;;;;;5.50;74.90;;;;;;5098446;28;19912;-67
2021/03/18 12:42:25;;;;;;;;;;;5.40;75.20;;;;;;5098538;28;19916;-68
2021/03/18 12:44:50;;;;;;;;;;;5.20;75.20;;;;;;5096700;28;19912;-68
2021/03/18 12:47:16;;;;;;;;;;;5.50;77.00;;;;;;5085647;28;19923;-69
2021/03/18 12:49:41;;;;;;;;;;;6.00;75.70;;;;;;5079892;28;19916;-68
2021/03/18 12:52:07;;;;;;;;;;;6.10;74.90;;;;;;5072862;28;19916;-67
2021/03/18 12:54:33;;;;;;;;;;;6.60;72.70;;;;;;5097960;28;20003;-68
2021/03/18 12:56:59;;;;;;;;;;;6.80;72.80;;;;;;5097582;28;21647;-68
2021/03/18 12:59:25;;;;;;;;;;;7.10;71.60;;;;;;5078320;28;19960;-68
2021/03/18 13:01:50;;;;;;;;;;;7.00;70.70;;;;;;5109346;28;19963;-68
2021/03/18 13:04:16;;;;;;;;;;;6.90;70.80;;;;;;5091586;28;19912;-67
2021/03/18 13:06:41;;;;;;;;;;;6.70;71.30;;;;;;5098032;28;19916;-68
2021/03/18 13:09:07;;;;;;;;;;;6.60;71.30;;;;;;5097833;28;19912;-69
2021/03/18 13:11:33;;;;;;;;;;;6.60;72.20;;;;;;5098243;28;19959;-70
2021/03/18 13:13:58;;;;;;;;;;;6.80;72.20;;;;;;5096549;28;20332;-69
2021/03/18 13:16:24;;;;;;;;;;;7.30;72.00;;;;;;5097653;28;20012;-69
2021/03/18 13:18:49;;;;;;;;;;;7.30;69.80;;;;;;5091971;28;20227;-69
2021/03/18 13:21:15;;;;;;;;;;;8.00;72.10;;;;;;5097939;28;20312;-69
2021/03/18 13:23:40;;;;;;;;;;;8.90;67.00;;;;;;5096075;28;19912;-69
2021/03/18 13:26:06;;;;;;;;;;;9.10;65.90;;;;;;5097075;28;20382;-69
2021/03/18 13:28:32;;;;;;;;;;;8.90;65.20;;;;;;5077552;28;19965;-69
2021/03/18 13:30:58;;;;;;;;;;;8.90;66.80;;;;;;5096568;28;19920;-67
2021/03/18 13:33:24;;;;;;;;;;;9.00;63.30;;;;;;5096773;28;20308;-68
2021/03/18 13:35:50;;;;;;;;;;;9.10;64.80;;;;;;5078738;28;20263;-69
2021/03/18 13:38:15;;;;;;;;;;;8.70;65.00;;;;;;5096996;28;19924;-68
2021/03/18 13:40:43;;;;;;;;;;;7.80;67.10;;;;;;5096506;28;19912;-68
2021/03/18 13:43:09;;;;;;;;;;;7.70;65.70;;;;;;5097108;28;20370;-68
2021/03/18 13:45:36;;;;;;;;;;;7.40;68.70;;;;;;5064736;28;19916;-69
2021/03/18 13:48:02;;;;;;;;;;;7.80;67.40;;;;;;5094629;28;19912;-69
2021/03/18 13:50:28;;;;;;;;;;;7.90;67.60;;;;;;5096594;28;19927;-67
2021/03/18 13:52:53;;;;;;;;;;;8.60;65.80;;;;;;5096952;28;19912;-68
2021/03/18 13:55:19;;;;;;;;;;;9.20;63.70;;;;;;5096723;28;19920;-68
2021/03/18 13:57:44;;;;;;;;;;;9.70;63.00;;;;;;5096912;28;19927;-69
2021/03/18 14:00:10;;;;;;;;;;;8.60;60.10;;;;;;5095284;28;19916;-68
2021/03/18 14:02:36;;;;;;;;;;;7.20;62.40;;;;;;5097087;28;20193;-68
2021/03/18 14:05:01;;;;;;;;;;;6.50;65.10;;;;;;5096709;28;19916;-68
2021/03/18 14:07:27;;;;;;;;;;;6.20;65.50;;;;;;5097039;28;19916;-68
2021/03/18 14:09:52;;;;;;;;;;;5.80;67.50;;;;;;5078438;28;20375;-68
2021/03/18 14:12:18;;;;;;;;;;;5.90;64.00;;;;;;5096035;28;20228;-68
2021/03/18 14:14:44;;;;;;;;;;;6.10;66.80;;;;;;5095001;28;19912;-68
2021/03/18 14:17:10;;;;;;;;;;;6.70;63.70;;;;;;5084417;28;19934;-69
2021/03/18 14:19:35;;;;;;;;;;;6.90;63.60;;;;;;5096737;28;19916;-68
2021/03/18 14:22:02;;;;;;;;;;;7.20;63.80;;;;;;5097163;28;19953;-68
2021/03/18 14:24:28;;;;;;;;;;;7.60;62.80;;;;;;5096133;28;19923;-68
2021/03/18 14:26:53;;;;;;;;;;;8.00;61.00;;;;;;5096426;28;19912;-69